Time,TemperatureF,DewpointF,PressureIn,WindDirection,WindDirectionDegrees,WindSpeedMPH,WindSpeedGustMPH,Humidity,HourlyPrecipIn,Conditions,Clouds,dailyrainin,SoftwareType,DateUTC
2013-05-16 00:01:00,63.7,51.7,29.86,SSE,168,0.0,6.0,65,0.00,,,0.00,Wunderground v.1.15,2013-05-16 04:01:00,
2013-05-16 00:04:00,63.5,51.5,29.86,SSE,168,0.0,6.0,65,0.00,,,0.00,Wunderground v.1.15,2013-05-16 04:04:00,
2013-05-16 00:06:00,63.4,51.4,29.86,SSE,168,0.0,6.0,65,0.00,,,0.00,Wunderground v.1.15,2013-05-16 04:06:00,
2013-05-16 00:07:00,63.4,51.4,29.86,SSE,168,0.0,6.0,65,0.00,,,0.00,Wunderground v.1.15,2013-05-16 04:07:00,
2013-05-16 00:08:00,63.3,51.3,29.86,SSE,168,0.0,6.0,65,0.00,,,0.00,Wunderground v.1.15,2013-05-16 04:08:00,
2013-05-16 00:13:00,63.2,51.2,29.85,SSE,168,0.0,6.0,65,0.00,,,0.00,Wunderground v.1.15,2013-05-16 04:13:00,
2013-05-16 00:19:00,63.0,51.5,29.85,SSE,168,0.0,6.0,66,0.00,,,0.00,Wunderground v.1.15,2013-05-16 04:19:00,
2013-05-16 00:24:00,62.9,51.0,29.85,SSE,168,0.0,6.0,65,0.00,,,0.00,Wunderground v.1.15,2013-05-16 04:24:00,
2013-05-16 00:30:00,62.8,51.3,29.85,SSE,168,0.0,6.0,66,0.00,,,0.00,Wunderground v.1.15,2013-05-16 04:30:00,
2013-05-16 00:35:00,62.7,51.6,29.85,SSE,168,0.0,6.0,67,0.00,,,0.00,Wunderground v.1.15,2013-05-16 04:35:00,
2013-05-16 00:41:00,62.3,51.6,29.85,SSE,168,0.0,6.0,68,0.00,,,0.00,Wunderground v.1.15,2013-05-16 04:41:00,
2013-05-16 00:47:00,62.5,51.8,29.85,SSE,168,0.0,6.0,68,0.00,,,0.00,Wunderground v.1.15,2013-05-16 04:47:00,
2013-05-16 00:53:00,62.2,51.5,29.85,SSE,168,0.0,6.0,68,0.00,,,0.00,Wunderground v.1.15,2013-05-16 04:53:00,
2013-05-16 00:58:00,61.8,51.9,29.85,SSE,168,0.0,6.0,70,0.00,,,0.00,Wunderground v.1.15,2013-05-16 04:58:00,
2013-05-16 01:03:00,61.3,51.8,29.85,SSE,168,0.0,6.0,71,0.00,,,0.00,Wunderground v.1.15,2013-05-16 05:03:00,
2013-05-16 01:09:00,61.1,51.6,29.85,SSE,168,0.0,6.0,71,0.00,,,0.00,Wunderground v.1.15,2013-05-16 05:09:00,
2013-05-16 01:14:00,61.2,51.7,29.84,SSE,168,0.0,6.0,71,0.00,,,0.00,Wunderground v.1.15,2013-05-16 05:14:00,
2013-05-16 01:20:00,61.6,51.7,29.84,SSE,168,0.0,6.0,70,0.00,,,0.00,Wunderground v.1.15,2013-05-16 05:20:00,
2013-05-16 01:25:00,62.0,51.7,29.84,SSE,168,0.0,6.0,69,0.00,,,0.00,Wunderground v.1.15,2013-05-16 05:25:00,
2013-05-16 01:31:00,61.8,51.9,29.84,SSE,168,0.0,6.0,70,0.00,,,0.00,Wunderground v.1.15,2013-05-16 05:31:00,
2013-05-16 01:36:00,61.5,51.6,29.84,SSE,168,0.0,6.0,70,0.00,,,0.00,Wunderground v.1.15,2013-05-16 05:36:00,
2013-05-16 01:42:00,61.3,51.8,29.84,SSE,168,0.0,6.0,71,0.00,,,0.00,Wunderground v.1.15,2013-05-16 05:42:00,
2013-05-16 01:48:00,61.1,51.6,29.84,SSE,168,0.0,6.0,71,0.00,,,0.00,Wunderground v.1.15,2013-05-16 05:48:00,
2013-05-16 01:53:00,60.8,51.7,29.84,SSE,168,0.0,6.0,72,0.00,,,0.00,Wunderground v.1.15,2013-05-16 05:53:00,
2013-05-16 01:59:00,60.5,51.8,29.84,SSE,168,0.0,6.0,73,0.00,,,0.00,Wunderground v.1.15,2013-05-16 05:59:00,
2013-05-16 02:04:00,60.3,51.6,29.84,SSE,168,0.0,6.0,73,0.00,,,0.00,Wunderground v.1.15,2013-05-16 06:04:00,
2013-05-16 02:10:00,60.2,51.5,29.84,SSE,168,0.0,6.0,73,0.00,,,0.00,Wunderground v.1.15,2013-05-16 06:10:00,
2013-05-16 02:16:00,60.2,51.9,29.83,SSE,168,0.0,6.0,74,0.00,,,0.00,Wunderground v.1.15,2013-05-16 06:16:00,
2013-05-16 02:21:00,60.4,52.1,29.83,SSE,168,0.0,6.0,74,0.00,,,0.00,Wunderground v.1.15,2013-05-16 06:21:00,
2013-05-16 02:27:00,60.5,51.8,29.83,SSE,168,0.0,6.0,73,0.00,,,0.00,Wunderground v.1.15,2013-05-16 06:27:00,
2013-05-16 02:33:00,60.5,52.2,29.83,SSE,168,0.0,6.0,74,0.00,,,0.00,Wunderground v.1.15,2013-05-16 06:33:00,
2013-05-16 02:38:00,60.5,52.2,29.83,SSE,168,0.0,6.0,74,0.00,,,0.00,Wunderground v.1.15,2013-05-16 06:38:00,
2013-05-16 02:44:00,60.6,52.3,29.83,SSE,168,0.0,6.0,74,0.00,,,0.00,Wunderground v.1.15,2013-05-16 06:44:00,
2013-05-16 02:50:00,60.5,52.2,29.83,SSE,168,0.0,6.0,74,0.00,,,0.00,Wunderground v.1.15,2013-05-16 06:50:00,
2013-05-16 02:55:00,60.2,52.2,29.83,SSE,168,0.0,6.0,75,0.00,,,0.00,Wunderground v.1.15,2013-05-16 06:55:00,
2013-05-16 03:01:00,59.7,52.1,29.82,SSE,168,0.0,6.0,76,0.00,,,0.00,Wunderground v.1.15,2013-05-16 07:01:00,
2013-05-16 03:06:00,59.3,52.1,29.82,SSE,168,0.0,6.0,77,0.00,,,0.00,Wunderground v.1.15,2013-05-16 07:06:00,
2013-05-16 03:12:00,59.1,52.2,29.82,SSE,168,0.0,6.0,78,0.00,,,0.00,Wunderground v.1.15,2013-05-16 07:12:00,
2013-05-16 03:18:00,58.9,52.1,29.82,SSE,168,1.0,6.0,78,0.00,,,0.00,Wunderground v.1.15,2013-05-16 07:18:00,
2013-05-16 03:23:00,58.8,52.0,29.82,SSE,168,2.0,6.0,78,0.00,,,0.00,Wunderground v.1.15,2013-05-16 07:23:00,
2013-05-16 03:29:00,58.8,52.3,29.82,SSE,168,1.0,6.0,79,0.00,,,0.00,Wunderground v.1.15,2013-05-16 07:29:00,
2013-05-16 06:52:00,54.8,51.3,29.83,SSW,204,0.0,6.0,88,0.00,,,0.00,Wunderground v.1.15,2013-05-16 10:52:00,
2013-05-16 06:58:00,54.6,51.1,29.84,SSW,204,0.0,6.0,88,0.00,,,0.00,Wunderground v.1.15,2013-05-16 10:58:00,
2013-05-16 07:04:00,54.1,50.6,29.84,SSW,204,0.0,0.0,88,0.00,,,0.00,Wunderground v.1.15,2013-05-16 11:04:00,
2013-05-16 07:09:00,53.9,50.7,29.84,SSW,204,0.0,0.0,89,0.00,,,0.00,Wunderground v.1.15,2013-05-16 11:09:00,
2013-05-16 07:14:00,54.0,50.8,29.84,SSW,204,0.0,0.0,89,0.00,,,0.00,Wunderground v.1.15,2013-05-16 11:14:00,
2013-05-16 07:20:00,54.1,51.2,29.84,SSW,204,0.0,0.0,90,0.00,,,0.00,Wunderground v.1.15,2013-05-16 11:20:00,
2013-05-16 07:25:00,54.3,51.1,29.84,SSW,204,0.0,0.0,89,0.00,,,0.00,Wunderground v.1.15,2013-05-16 11:25:00,
2013-05-16 07:30:00,54.3,51.1,29.84,SSW,204,0.0,0.0,89,0.00,,,0.00,Wunderground v.1.15,2013-05-16 11:30:00,
2013-05-16 07:36:00,54.5,51.6,29.84,SSW,204,0.0,0.0,90,0.00,,,0.00,Wunderground v.1.15,2013-05-16 11:36:00,
2013-05-16 07:41:00,54.5,51.3,29.84,SSW,204,0.0,0.0,89,0.00,,,0.00,Wunderground v.1.15,2013-05-16 11:41:00,
2013-05-16 07:47:00,54.7,51.8,29.86,SSW,204,0.0,0.0,90,0.00,,,0.00,Wunderground v.1.15,2013-05-16 11:47:00,
2013-05-16 07:53:00,55.0,51.8,29.86,SSW,204,0.0,0.0,89,0.00,,,0.00,Wunderground v.1.15,2013-05-16 11:53:00,
2013-05-16 07:59:00,55.4,51.9,29.86,SSW,204,0.0,0.0,88,0.00,,,0.00,Wunderground v.1.15,2013-05-16 11:59:00,
2013-05-16 08:04:00,55.5,52.3,29.86,SSW,204,2.0,7.0,89,0.00,,,0.00,Wunderground v.1.15,2013-05-16 12:04:00,
2013-05-16 08:09:00,55.3,52.1,29.86,SSW,204,3.0,7.0,89,0.00,,,0.00,Wunderground v.1.15,2013-05-16 12:09:00,
2013-05-16 08:14:00,55.6,52.4,29.87,SSW,204,1.0,3.0,89,0.00,,,0.00,Wunderground v.1.15,2013-05-16 12:14:00,
2013-05-16 08:20:00,55.8,52.3,29.87,SSW,204,0.0,0.0,88,0.00,,,0.00,Wunderground v.1.15,2013-05-16 12:20:00,
2013-05-16 08:25:00,55.9,52.1,29.87,SSW,204,0.0,0.0,87,0.00,,,0.00,Wunderground v.1.15,2013-05-16 12:25:00,
2013-05-16 08:30:00,56.3,52.5,29.87,SSW,204,0.0,0.0,87,0.00,,,0.00,Wunderground v.1.15,2013-05-16 12:30:00,
2013-05-16 08:36:00,57.4,53.6,29.87,SSW,205,0.0,0.0,87,0.00,,,0.00,Wunderground v.1.15,2013-05-16 12:36:00,
2013-05-16 08:41:00,58.3,54.1,29.87,SSW,205,0.0,0.0,86,0.00,,,0.00,Wunderground v.1.15,2013-05-16 12:41:00,
2013-05-16 08:46:00,58.7,53.9,29.87,SSW,205,0.0,0.0,84,0.00,,,0.00,Wunderground v.1.15,2013-05-16 12:46:00,
2013-05-16 08:52:00,59.0,54.5,29.87,SSW,205,0.0,0.0,85,0.00,,,0.00,Wunderground v.1.15,2013-05-16 12:52:00,
2013-05-16 08:57:00,59.6,54.8,29.87,South,184,0.0,0.0,84,0.00,,,0.00,Wunderground v.1.15,2013-05-16 12:57:00,
2013-05-16 09:02:00,60.5,55.3,29.87,SW,216,0.0,7.0,83,0.00,,,0.00,Wunderground v.1.15,2013-05-16 13:02:00,
2013-05-16 09:07:00,61.1,55.6,29.87,WSW,252,3.0,8.0,82,0.00,,,0.00,Wunderground v.1.15,2013-05-16 13:07:00,
2013-05-16 09:12:00,61.8,55.9,29.86,NW,313,7.0,10.0,81,0.00,,,0.00,Wunderground v.1.15,2013-05-16 13:12:00,
2013-05-16 09:17:00,62.5,56.2,29.86,NW,313,5.0,10.0,80,0.00,,,0.00,Wunderground v.1.15,2013-05-16 13:17:00,
2013-05-16 09:22:00,63.4,55.7,29.86,NW,314,3.0,9.0,76,0.00,,,0.00,Wunderground v.1.15,2013-05-16 13:22:00,
2013-05-16 09:28:00,63.8,56.1,29.87,NW,314,3.0,9.0,76,0.00,,,0.00,Wunderground v.1.15,2013-05-16 13:28:00,
2013-05-16 09:34:00,64.0,55.2,29.87,NW,314,2.0,3.0,73,0.00,,,0.00,Wunderground v.1.15,2013-05-16 13:34:00,
2013-05-16 09:39:00,64.2,55.4,29.87,NW,314,2.0,4.0,73,0.00,,,0.00,Wunderground v.1.15,2013-05-16 13:39:00,
2013-05-16 09:45:00,64.5,56.4,29.89,NW,314,1.0,6.0,75,0.00,,,0.00,Wunderground v.1.15,2013-05-16 13:45:00,
2013-05-16 09:50:00,64.6,56.5,29.89,NW,314,1.0,1.0,75,0.00,,,0.00,Wunderground v.1.15,2013-05-16 13:50:00,
2013-05-16 09:55:00,65.2,56.7,29.89,NW,314,1.0,5.0,74,0.00,,,0.00,Wunderground v.1.15,2013-05-16 13:55:00,
2013-05-16 10:01:00,65.9,57.0,29.88,NW,314,1.0,1.0,73,0.00,,,0.00,Wunderground v.1.15,2013-05-16 14:01:00,
2013-05-16 10:07:00,66.2,56.9,29.88,NW,314,1.0,1.0,72,0.00,,,0.00,Wunderground v.1.15,2013-05-16 14:07:00,
2013-05-16 10:13:00,66.7,57.4,29.88,NW,314,0.0,0.0,72,0.00,,,0.00,Wunderground v.1.15,2013-05-16 14:13:00,
2013-05-16 10:19:00,67.4,57.3,29.88,NW,314,1.0,5.0,70,0.00,,,0.00,Wunderground v.1.15,2013-05-16 14:19:00,
2013-05-16 10:24:00,67.8,57.7,29.88,NW,314,2.0,8.0,70,0.00,,,0.00,Wunderground v.1.15,2013-05-16 14:24:00,
2013-05-16 10:30:00,68.1,58.3,29.88,NW,314,1.0,1.0,71,0.00,,,0.00,Wunderground v.1.15,2013-05-16 14:30:00,
2013-05-16 10:36:00,68.4,59.0,29.88,NW,314,2.0,4.0,72,0.00,,,0.00,Wunderground v.1.15,2013-05-16 14:36:00,
2013-05-16 10:41:00,68.6,58.4,29.88,NW,314,3.0,3.0,70,0.00,,,0.00,Wunderground v.1.15,2013-05-16 14:41:00,
2013-05-16 10:46:00,68.8,58.6,29.88,NW,314,1.0,4.0,70,0.00,,,0.00,Wunderground v.1.15,2013-05-16 14:46:00,
2013-05-16 10:51:00,69.0,58.0,29.88,NW,314,1.0,1.0,68,0.00,,,0.00,Wunderground v.1.15,2013-05-16 14:51:00,
2013-05-16 10:56:00,69.4,58.0,29.88,NW,324,4.0,13.0,67,0.00,,,0.00,Wunderground v.1.15,2013-05-16 14:56:00,
2013-05-16 11:01:00,69.7,58.7,29.88,NW,323,6.0,6.0,68,0.00,,,0.00,Wunderground v.1.15,2013-05-16 15:01:00,
2013-05-16 11:07:00,70.1,57.8,29.88,NW,323,5.0,9.0,65,0.00,,,0.00,Wunderground v.1.15,2013-05-16 15:07:00,
2013-05-16 11:13:00,70.6,58.3,29.87,NW,320,5.0,6.0,65,0.00,,,0.00,Wunderground v.1.15,2013-05-16 15:13:00,
2013-05-16 11:19:00,70.9,57.7,29.87,NW,319,6.0,11.0,63,0.00,,,0.00,Wunderground v.1.15,2013-05-16 15:19:00,
2013-05-16 11:24:00,71.1,58.3,29.87,NW,319,5.0,6.0,64,0.00,,,0.00,Wunderground v.1.15,2013-05-16 15:24:00,
2013-05-16 11:29:00,71.2,57.5,29.87,NW,318,5.0,13.0,62,0.00,,,0.00,Wunderground v.1.15,2013-05-16 15:29:00,
2013-05-16 11:34:00,71.1,57.0,29.87,NW,317,7.0,10.0,61,0.00,,,0.00,Wunderground v.1.15,2013-05-16 15:34:00,
2013-05-16 11:39:00,71.1,57.4,29.87,NW,317,6.0,10.0,62,0.00,,,0.00,Wunderground v.1.15,2013-05-16 15:39:00,
2013-05-16 11:45:00,71.0,58.2,29.88,NW,317,1.0,5.0,64,0.00,,,0.00,Wunderground v.1.15,2013-05-16 15:45:00,
2013-05-16 11:50:00,71.0,57.3,29.88,NW,317,1.0,9.0,62,0.00,,,0.00,Wunderground v.1.15,2013-05-16 15:50:00,
2013-05-16 11:55:00,70.9,56.8,29.88,NW,318,2.0,9.0,61,0.00,,,0.00,Wunderground v.1.15,2013-05-16 15:55:00,
2013-05-16 12:00:00,71.0,56.9,29.87,NNW,336,6.0,14.0,61,0.00,,,0.00,Wunderground v.1.15,2013-05-16 16:00:00,
2013-05-16 12:05:00,70.7,57.5,29.87,NNW,332,11.0,14.0,63,0.00,,,0.00,Wunderground v.1.15,2013-05-16 16:05:00,
2013-05-16 12:10:00,70.4,57.2,29.87,NW,306,11.0,11.0,63,0.00,,,0.00,Wunderground v.1.15,2013-05-16 16:10:00,
2013-05-16 12:15:00,70.5,57.7,29.87,NW,311,6.0,11.0,64,0.00,,,0.00,Wunderground v.1.15,2013-05-16 16:15:00,
2013-05-16 12:21:00,70.7,57.5,29.87,NW,311,2.0,3.0,63,0.00,,,0.00,Wunderground v.1.15,2013-05-16 16:21:00,
2013-05-16 12:26:00,70.7,57.9,29.87,NW,315,2.0,9.0,64,0.00,,,0.00,Wunderground v.1.15,2013-05-16 16:26:00,
2013-05-16 12:31:00,70.5,57.3,29.87,NW,315,2.0,2.0,63,0.00,,,0.00,Wunderground v.1.15,2013-05-16 16:31:00,
2013-05-16 12:37:00,70.6,58.7,29.87,NW,315,2.0,5.0,66,0.00,,,0.00,Wunderground v.1.15,2013-05-16 16:37:00,
2013-05-16 12:42:00,70.7,58.4,29.86,NW,315,4.0,8.0,65,0.00,,,0.00,Wunderground v.1.15,2013-05-16 16:42:00,
2013-05-16 12:47:00,70.6,58.3,29.86,NW,318,6.0,9.0,65,0.00,,,0.00,Wunderground v.1.15,2013-05-16 16:47:00,
2013-05-16 12:52:00,70.4,57.2,29.86,NW,317,8.0,9.0,63,0.00,,,0.00,Wunderground v.1.15,2013-05-16 16:52:00,
2013-05-16 12:57:00,70.3,57.5,29.86,NW,317,6.0,12.0,64,0.00,,,0.00,Wunderground v.1.15,2013-05-16 16:57:00,
2013-05-16 13:02:00,70.1,56.9,29.86,NW,317,3.0,4.0,63,0.00,,,0.00,Wunderground v.1.15,2013-05-16 17:02:00,
2013-05-16 13:08:00,69.8,57.5,29.86,NW,317,1.0,4.0,65,0.00,,,0.00,Wunderground v.1.15,2013-05-16 17:08:00,
2013-05-16 13:13:00,69.9,58.4,29.86,NW,317,0.0,1.0,67,0.00,,,0.00,Wunderground v.1.15,2013-05-16 17:13:00,
2013-05-16 13:18:00,69.9,57.6,29.86,NW,317,0.0,1.0,65,0.00,,,0.00,Wunderground v.1.15,2013-05-16 17:18:00,
2013-05-16 13:23:00,70.1,57.4,29.86,NW,317,0.0,0.0,64,0.00,,,0.00,Wunderground v.1.15,2013-05-16 17:23:00,
2013-05-16 13:28:00,70.5,58.2,29.85,NW,317,0.0,0.0,65,0.00,,,0.00,Wunderground v.1.15,2013-05-16 17:28:00,
2013-05-16 13:33:00,70.9,58.1,29.85,NW,317,1.0,7.0,64,0.00,,,0.00,Wunderground v.1.15,2013-05-16 17:33:00,
2013-05-16 13:38:00,71.2,57.5,29.85,NW,317,3.0,8.0,62,0.00,,,0.00,Wunderground v.1.15,2013-05-16 17:38:00,
2013-05-16 13:43:00,71.5,59.1,29.85,NW,317,3.0,3.0,65,0.00,,,0.00,Wunderground v.1.15,2013-05-16 17:43:00,
2013-05-16 13:49:00,72.1,58.4,29.85,NW,317,1.0,4.0,62,0.00,,,0.00,Wunderground v.1.15,2013-05-16 17:49:00,
2013-05-16 13:54:00,72.6,59.3,29.85,NW,316,1.0,3.0,63,0.00,,,0.00,Wunderground v.1.15,2013-05-16 17:54:00,
2013-05-16 13:59:00,73.3,59.0,29.84,NW,315,2.0,9.0,61,0.00,,,0.00,Wunderground v.1.15,2013-05-16 17:59:00,
2013-05-16 14:04:00,73.4,57.7,29.84,NNW,330,5.0,11.0,58,0.00,,,0.00,Wunderground v.1.15,2013-05-16 18:04:00,
2013-05-16 14:09:00,73.3,57.6,29.84,NNW,329,5.0,11.0,58,0.00,,,0.00,Wunderground v.1.15,2013-05-16 18:09:00,
2013-05-16 14:14:00,73.1,58.4,29.84,NNW,329,2.0,5.0,60,0.00,,,0.00,Wunderground v.1.15,2013-05-16 18:14:00,
2013-05-16 14:19:00,73.2,57.5,29.84,NNW,329,2.0,3.0,58,0.00,,,0.00,Wunderground v.1.15,2013-05-16 18:19:00,
2013-05-16 14:25:00,73.2,58.0,29.84,NNW,329,4.0,7.0,59,0.00,,,0.00,Wunderground v.1.15,2013-05-16 18:25:00,
2013-05-16 14:30:00,73.4,57.2,29.84,NNW,327,5.0,5.0,57,0.00,,,0.00,Wunderground v.1.15,2013-05-16 18:30:00,
2013-05-16 14:35:00,73.9,57.2,29.84,NW,315,4.0,8.0,56,0.00,,,0.00,Wunderground v.1.15,2013-05-16 18:35:00,
2013-05-16 14:41:00,74.0,57.3,29.84,NW,320,5.0,8.0,56,0.00,,,0.00,Wunderground v.1.15,2013-05-16 18:41:00,
2013-05-16 14:47:00,74.2,56.5,29.84,NW,320,4.0,8.0,54,0.00,,,0.00,Wunderground v.1.15,2013-05-16 18:47:00,
2013-05-16 14:53:00,74.2,59.4,29.84,NW,320,1.0,3.0,60,0.00,,,0.00,Wunderground v.1.15,2013-05-16 18:53:00,
2013-05-16 14:58:00,74.3,57.6,29.84,NW,319,1.0,3.0,56,0.00,,,0.00,Wunderground v.1.15,2013-05-16 18:58:00,
2013-05-16 15:03:00,75.1,59.8,29.84,NW,319,1.0,2.0,59,0.00,,,0.00,Wunderground v.1.15,2013-05-16 19:03:00,
2013-05-16 15:08:00,76.3,57.4,29.84,NW,322,3.0,7.0,52,0.00,,,0.00,Wunderground v.1.15,2013-05-16 19:08:00,
2013-05-16 15:13:00,76.8,58.4,29.84,NW,322,2.0,2.0,53,0.00,,,0.00,Wunderground v.1.15,2013-05-16 19:13:00,
2013-05-16 15:18:00,77.5,58.5,29.84,NW,316,1.0,9.0,52,0.00,,,0.00,Wunderground v.1.15,2013-05-16 19:18:00,
2013-05-16 15:23:00,77.8,58.8,29.84,NW,315,2.0,2.0,52,0.00,,,0.00,Wunderground v.1.15,2013-05-16 19:23:00,
2013-05-16 15:28:00,77.8,57.7,29.83,NW,315,1.0,2.0,50,0.00,,,0.00,Wunderground v.1.15,2013-05-16 19:28:00,
2013-05-16 15:33:00,77.8,57.1,29.83,NW,323,3.0,9.0,49,0.00,,,0.00,Wunderground v.1.15,2013-05-16 19:33:00,
2013-05-16 15:39:00,77.4,57.9,29.83,NW,322,4.0,9.0,51,0.00,,,0.00,Wunderground v.1.15,2013-05-16 19:39:00,
2013-05-16 15:44:00,76.6,56.6,29.83,NW,317,2.0,6.0,50,0.00,,,0.00,Wunderground v.1.15,2013-05-16 19:44:00,
2013-05-16 15:49:00,76.6,57.1,29.83,NW,317,1.0,6.0,51,0.00,,,0.00,Wunderground v.1.15,2013-05-16 19:49:00,
2013-05-16 15:54:00,77.2,57.1,29.83,NW,317,2.0,10.0,50,0.00,,,0.00,Wunderground v.1.15,2013-05-16 19:54:00,
2013-05-16 15:59:00,77.4,58.4,29.82,NW,317,2.0,10.0,52,0.00,,,0.00,Wunderground v.1.15,2013-05-16 19:59:00,
2013-05-16 16:04:00,78.0,57.9,29.82,NW,317,1.0,2.0,50,0.00,,,0.00,Wunderground v.1.15,2013-05-16 20:04:00,
2013-05-16 16:09:00,78.7,59.0,29.82,NW,317,1.0,4.0,51,0.00,,,0.00,Wunderground v.1.15,2013-05-16 20:09:00,
2013-05-16 16:15:00,79.0,59.3,29.82,NW,317,0.0,1.0,51,0.00,,,0.00,Wunderground v.1.15,2013-05-16 20:15:00,
2013-05-16 16:20:00,79.0,57.0,29.82,NW,317,0.0,0.0,47,0.00,,,0.00,Wunderground v.1.15,2013-05-16 20:20:00,
2013-05-16 16:25:00,78.8,58.0,29.82,NW,317,0.0,4.0,49,0.00,,,0.00,Wunderground v.1.15,2013-05-16 20:25:00,
2013-05-16 16:30:00,78.5,58.9,29.81,NW,317,1.0,1.0,51,0.00,,,0.00,Wunderground v.1.15,2013-05-16 20:30:00,
2013-05-16 16:36:00,78.2,56.9,29.81,NW,317,1.0,8.0,48,0.00,,,0.00,Wunderground v.1.15,2013-05-16 20:36:00,
2013-05-16 16:41:00,77.6,56.4,29.81,SE,136,2.0,7.0,48,0.00,,,0.00,Wunderground v.1.15,2013-05-16 20:41:00,
2013-05-16 16:47:00,77.6,55.2,29.81,SE,143,3.0,10.0,46,0.00,,,0.00,Wunderground v.1.15,2013-05-16 20:47:00,
2013-05-16 16:52:00,77.1,57.0,29.81,SE,130,3.0,3.0,50,0.00,,,0.00,Wunderground v.1.15,2013-05-16 20:52:00,
2013-05-16 16:57:00,76.9,56.3,29.81,SE,130,3.0,5.0,49,0.00,,,0.00,Wunderground v.1.15,2013-05-16 20:57:00,
2013-05-16 17:02:00,76.7,56.7,29.81,SE,130,2.0,2.0,50,0.00,,,0.00,Wunderground v.1.15,2013-05-16 21:02:00,
2013-05-16 17:07:00,77.0,56.4,29.81,SE,132,1.0,2.0,49,0.00,,,0.00,Wunderground v.1.15,2013-05-16 21:07:00,
2013-05-16 17:12:00,77.4,55.6,29.80,SE,132,0.0,2.0,47,0.00,,,0.00,Wunderground v.1.15,2013-05-16 21:12:00,
2013-05-16 17:18:00,77.6,54.6,29.80,SE,132,1.0,4.0,45,0.00,,,0.00,Wunderground v.1.15,2013-05-16 21:18:00,
2013-05-16 17:23:00,77.5,56.3,29.80,SE,141,3.0,10.0,48,0.00,,,0.00,Wunderground v.1.15,2013-05-16 21:23:00,
2013-05-16 17:28:00,77.2,56.0,29.80,SSE,161,3.0,10.0,48,0.00,,,0.00,Wunderground v.1.15,2013-05-16 21:28:00,
2013-05-16 17:33:00,77.1,57.0,29.80,SSE,156,2.0,3.0,50,0.00,,,0.00,Wunderground v.1.15,2013-05-16 21:33:00,
2013-05-16 17:38:00,76.9,55.7,29.80,SSE,148,2.0,5.0,48,0.00,,,0.00,Wunderground v.1.15,2013-05-16 21:38:00,
2013-05-16 17:43:00,77.0,54.6,29.81,SSW,205,4.0,10.0,46,0.00,,,0.00,Wunderground v.1.15,2013-05-16 21:43:00,
2013-05-16 17:48:00,77.3,56.1,29.81,SSE,155,3.0,10.0,48,0.00,,,0.00,Wunderground v.1.15,2013-05-16 21:48:00,
2013-05-16 17:53:00,77.3,55.5,29.81,NW,313,2.0,8.0,47,0.00,,,0.00,Wunderground v.1.15,2013-05-16 21:53:00,
2013-05-16 17:58:00,77.3,56.1,29.81,South,184,2.0,8.0,48,0.00,,,0.00,Wunderground v.1.15,2013-05-16 21:58:00,
2013-05-16 18:03:00,77.4,56.7,29.81,South,169,2.0,6.0,49,0.00,,,0.00,Wunderground v.1.15,2013-05-16 22:03:00,
2013-05-16 18:09:00,77.3,56.1,29.81,SSE,147,3.0,6.0,48,0.00,,,0.00,Wunderground v.1.15,2013-05-16 22:09:00,
2013-05-16 18:14:00,77.1,57.6,29.80,SE,127,4.0,8.0,51,0.00,,,0.00,Wunderground v.1.15,2013-05-16 22:14:00,
2013-05-16 18:19:00,76.7,57.2,29.80,SE,134,4.0,8.0,51,0.00,,,0.00,Wunderground v.1.15,2013-05-16 22:19:00,
2013-05-16 18:24:00,76.3,57.9,29.80,SE,133,3.0,7.0,53,0.00,,,0.00,Wunderground v.1.15,2013-05-16 22:24:00,
2013-05-16 18:30:00,76.0,59.2,29.80,SE,133,4.0,4.0,56,0.00,,,0.00,Wunderground v.1.15,2013-05-16 22:30:00,
2013-05-16 18:35:00,75.5,57.7,29.80,SE,140,4.0,9.0,54,0.00,,,0.00,Wunderground v.1.15,2013-05-16 22:35:00,
2013-05-16 18:40:00,75.5,58.7,29.80,SE,139,4.0,6.0,56,0.00,,,0.00,Wunderground v.1.15,2013-05-16 22:40:00,
2013-05-16 18:45:00,75.6,58.8,29.80,SSE,149,3.0,8.0,56,0.00,,,0.00,Wunderground v.1.15,2013-05-16 22:45:00,
2013-05-16 18:50:00,75.5,58.7,29.80,SE,136,5.0,5.0,56,0.00,,,0.00,Wunderground v.1.15,2013-05-16 22:50:00,
2013-05-16 18:55:00,75.2,59.4,29.80,SE,141,7.0,13.0,58,0.00,,,0.00,Wunderground v.1.15,2013-05-16 22:55:00,
2013-05-16 19:00:00,74.9,59.6,29.80,SE,137,8.0,14.0,59,0.00,,,0.00,Wunderground v.1.15,2013-05-16 23:00:00,
2013-05-16 19:05:00,74.4,59.6,29.80,SSE,152,9.0,20.0,60,0.00,,,0.00,Wunderground v.1.15,2013-05-16 23:05:00,
2013-05-16 19:10:00,73.9,59.1,29.80,SE,138,11.0,11.0,60,0.00,,,0.00,Wunderground v.1.15,2013-05-16 23:10:00,
2013-05-16 19:15:00,73.6,59.3,29.80,SE,132,11.0,16.0,61,0.00,,,0.00,Wunderground v.1.15,2013-05-16 23:15:00,
2013-05-16 19:20:00,73.4,59.6,29.80,SE,138,11.0,12.0,62,0.00,,,0.00,Wunderground v.1.15,2013-05-16 23:20:00,
2013-05-16 19:25:00,73.0,59.2,29.80,SE,140,10.0,12.0,62,0.00,,,0.00,Wunderground v.1.15,2013-05-16 23:25:00,
2013-05-16 19:30:00,72.7,59.4,29.80,SSE,147,10.0,10.0,63,0.00,,,0.00,Wunderground v.1.15,2013-05-16 23:30:00,
2013-05-16 19:35:00,72.5,58.7,29.80,SE,140,11.0,11.0,62,0.00,,,0.00,Wunderground v.1.15,2013-05-16 23:35:00,
2013-05-16 19:40:00,72.4,58.6,29.80,SSE,148,11.0,11.0,62,0.00,,,0.00,Wunderground v.1.15,2013-05-16 23:40:00,
2013-05-16 19:45:00,72.0,58.7,29.81,South,169,8.0,11.0,63,0.00,,,0.00,Wunderground v.1.15,2013-05-16 23:45:00,
2013-05-16 19:50:00,71.8,58.5,29.81,SE,143,9.0,13.0,63,0.00,,,0.00,Wunderground v.1.15,2013-05-16 23:50:00,
2013-05-16 19:55:00,71.5,58.2,29.81,SE,139,11.0,20.0,63,0.00,,,0.00,Wunderground v.1.15,2013-05-16 23:55:00,
2013-05-16 20:00:00,71.3,58.5,29.82,SSE,163,11.0,14.0,64,0.00,,,0.00,Wunderground v.1.15,2013-05-17 00:00:00,
2013-05-16 20:05:00,71.1,58.3,29.82,SSE,161,8.0,14.0,64,0.00,,,0.00,Wunderground v.1.15,2013-05-17 00:05:00,
2013-05-16 20:10:00,71.0,58.2,29.82,SSE,161,4.0,4.0,64,0.00,,,0.00,Wunderground v.1.15,2013-05-17 00:10:00,
2013-05-16 20:16:00,70.7,58.4,29.82,SSE,161,0.0,4.0,65,0.00,,,0.00,Wunderground v.1.15,2013-05-17 00:16:00,
2013-05-16 20:21:00,70.5,58.6,29.82,SSE,161,0.0,0.0,66,0.00,,,0.00,Wunderground v.1.15,2013-05-17 00:21:00,
2013-05-16 20:26:00,70.2,58.3,29.82,SSE,161,0.0,2.0,66,0.00,,,0.00,Wunderground v.1.15,2013-05-17 00:26:00,
2013-05-16 20:31:00,70.1,58.2,29.83,SSE,161,0.0,0.0,66,0.00,,,0.00,Wunderground v.1.15,2013-05-17 00:31:00,
2013-05-16 20:36:00,69.9,58.4,29.83,SSE,161,1.0,6.0,67,0.00,,,0.00,Wunderground v.1.15,2013-05-17 00:36:00,
2013-05-16 20:41:00,69.9,58.0,29.83,SSE,161,2.0,2.0,66,0.00,,,0.00,Wunderground v.1.15,2013-05-17 00:41:00,
2013-05-16 20:46:00,69.9,58.0,29.83,SSE,161,1.0,2.0,66,0.00,,,0.00,Wunderground v.1.15,2013-05-17 00:46:00,
2013-05-16 20:52:00,69.9,57.6,29.83,SSE,161,0.0,0.0,65,0.00,,,0.00,Wunderground v.1.15,2013-05-17 00:52:00,
2013-05-16 20:57:00,69.8,57.9,29.83,SSE,161,0.0,0.0,66,0.00,,,0.00,Wunderground v.1.15,2013-05-17 00:57:00,
2013-05-16 21:02:00,69.6,57.7,29.83,SSE,161,0.0,0.0,66,0.00,,,0.00,Wunderground v.1.15,2013-05-17 01:02:00,
2013-05-16 21:08:00,69.4,58.0,29.83,SSE,161,0.0,0.0,67,0.00,,,0.00,Wunderground v.1.15,2013-05-17 01:08:00,
2013-05-16 21:13:00,69.0,58.0,29.83,SSE,161,0.0,0.0,68,0.00,,,0.00,Wunderground v.1.15,2013-05-17 01:13:00,
2013-05-16 21:18:00,68.4,58.2,29.83,SSE,161,0.0,4.0,70,0.00,,,0.00,Wunderground v.1.15,2013-05-17 01:18:00,
2013-05-16 21:23:00,68.0,58.2,29.83,SSE,161,1.0,4.0,71,0.00,,,0.00,Wunderground v.1.15,2013-05-17 01:23:00,
2013-05-16 21:28:00,67.7,58.0,29.83,SSE,149,2.0,8.0,71,0.00,,,0.00,Wunderground v.1.15,2013-05-17 01:28:00,
2013-05-16 21:34:00,67.6,57.9,29.83,SE,144,3.0,7.0,71,0.00,,,0.00,Wunderground v.1.15,2013-05-17 01:34:00,
2013-05-16 21:39:00,67.8,57.7,29.83,SE,144,3.0,8.0,70,0.00,,,0.00,Wunderground v.1.15,2013-05-17 01:39:00,
2013-05-16 21:44:00,68.0,57.4,29.84,SE,144,2.0,4.0,69,0.00,,,0.00,Wunderground v.1.15,2013-05-17 01:44:00,
2013-05-16 21:49:00,68.0,57.4,29.84,SE,144,0.0,4.0,69,0.00,,,0.00,Wunderground v.1.15,2013-05-17 01:49:00,
2013-05-16 21:54:00,67.8,58.1,29.84,SE,144,0.0,0.0,71,0.00,,,0.00,Wunderground v.1.15,2013-05-17 01:54:00,
2013-05-16 21:59:00,67.4,57.7,29.85,SE,144,0.0,0.0,71,0.00,,,0.00,Wunderground v.1.15,2013-05-17 01:59:00,
2013-05-16 22:05:00,66.8,57.9,29.85,SE,144,0.0,0.0,73,0.00,,,0.00,Wunderground v.1.15,2013-05-17 02:05:00,
2013-05-16 22:10:00,66.5,58.0,29.85,SE,144,0.0,0.0,74,0.00,,,0.00,Wunderground v.1.15,2013-05-17 02:10:00,
2013-05-16 22:15:00,66.0,57.8,29.85,SE,144,0.0,0.0,75,0.00,,,0.00,Wunderground v.1.15,2013-05-17 02:15:00,
2013-05-16 22:20:00,65.8,57.7,29.85,SE,144,0.0,0.0,75,0.00,,,0.00,Wunderground v.1.15,2013-05-17 02:20:00,
2013-05-16 22:25:00,65.7,57.9,29.85,SE,144,2.0,7.0,76,0.00,,,0.00,Wunderground v.1.15,2013-05-17 02:25:00,
2013-05-16 22:30:00,65.8,57.7,29.85,SE,145,5.0,5.0,75,0.00,,,0.00,Wunderground v.1.15,2013-05-17 02:30:00,
2013-05-16 22:35:00,65.8,57.7,29.85,SE,145,3.0,5.0,75,0.00,,,0.00,Wunderground v.1.15,2013-05-17 02:35:00,
2013-05-16 22:40:00,65.8,57.7,29.85,SSE,155,0.0,5.0,75,0.00,,,0.00,Wunderground v.1.15,2013-05-17 02:40:00,
2013-05-16 22:45:00,65.2,57.8,29.85,SSE,157,2.0,6.0,77,0.00,,,0.00,Wunderground v.1.15,2013-05-17 02:45:00,
2013-05-16 22:50:00,64.7,57.7,29.85,SSE,157,2.0,2.0,78,0.00,,,0.00,Wunderground v.1.15,2013-05-17 02:50:00,
2013-05-16 22:55:00,64.2,57.5,29.85,SSE,157,0.0,2.0,79,0.00,,,0.00,Wunderground v.1.15,2013-05-17 02:55:00,
2013-05-16 23:00:00,64.0,57.4,29.86,SSE,157,0.0,0.0,79,0.00,,,0.00,Wunderground v.1.15,2013-05-17 03:00:00,
2013-05-16 23:05:00,63.8,57.5,29.86,SSE,157,0.0,0.0,80,0.00,,,0.00,Wunderground v.1.15,2013-05-17 03:05:00,
2013-05-16 23:10:00,63.7,57.4,29.86,SSE,157,0.0,0.0,80,0.00,,,0.00,Wunderground v.1.15,2013-05-17 03:10:00,
2013-05-16 23:15:00,64.0,57.4,29.85,SSE,157,0.0,0.0,79,0.00,,,0.00,Wunderground v.1.15,2013-05-17 03:15:00,
2013-05-16 23:20:00,64.1,57.5,29.85,SSE,157,0.0,0.0,79,0.00,,,0.00,Wunderground v.1.15,2013-05-17 03:20:00,
2013-05-16 23:26:00,63.8,57.5,29.85,SSE,157,0.0,0.0,80,0.00,,,0.00,Wunderground v.1.15,2013-05-17 03:26:00,
2013-05-16 23:31:00,63.5,57.2,29.85,SSE,157,0.0,0.0,80,0.00,,,0.00,Wunderground v.1.15,2013-05-17 03:31:00,
2013-05-16 23:36:00,63.2,57.3,29.85,SSE,157,0.0,0.0,81,0.00,,,0.00,Wunderground v.1.15,2013-05-17 03:36:00,
2013-05-16 23:41:00,63.2,57.3,29.85,SSE,157,0.0,0.0,81,0.00,,,0.00,Wunderground v.1.15,2013-05-17 03:41:00,
2013-05-16 23:46:00,63.3,57.4,29.85,SSE,157,0.0,2.0,81,0.00,,,0.00,Wunderground v.1.15,2013-05-17 03:46:00,
2013-05-16 23:51:00,63.5,57.2,29.85,SSE,157,0.0,0.0,80,0.00,,,0.00,Wunderground v.1.15,2013-05-17 03:51:00,
2013-05-16 23:56:00,63.8,57.2,29.85,SSE,157,0.0,0.0,79,0.00,,,0.00,Wunderground v.1.15,2013-05-17 03:56:00,